Terminal Aerodrome Forecast
Issued by NWS Paducah, KY

Home | Current Version | Previous Version | Text Only | Print | Product List | Glossary On
Versions: 1 2 3 4 5 6 7 8 9 10 11 12 13 14 15 16 17 18 19 20 21
000
FTUS43 KPAH 240529
TAFEVV
TAF
KEVV 240529Z 2406/2506 04004KT P6SM VCSH SCT010 OVC090
      TEMPO 2406/2409 BKN010
     FM240900 06008KT 3SM -SHRA BR OVC008
     FM241200 07008KT 2SM SHRA BR OVC003
     FM241700 14007KT 3SM -SHRA BR OVC008
     FM242200 17014G24KT 1 1/2SM +SHRA VCTS OVC008CB
     FM250400 20015G25KT 2SM +TSRA OVC003CB WS020/21065KT=

USA.gov is the U.S. government's official web portal to all federal, state and local government web resources and services.